createdAt,value
2023-04-23T18:49:11.575Z,100028.36
2023-04-23T18:50:45.820Z,100033.20
2023-04-23T18:51:52.992Z,100036.05
2023-04-23T18:52:56.898Z,100036.05
2023-04-23T18:54:02.286Z,100032.98
2023-04-23T18:55:06.469Z,100038.70
2023-04-23T18:56:10.475Z,100042.91
2023-04-23T18:57:14.406Z,100034.44
2023-04-23T18:58:18.247Z,99891.38
2023-04-23T18:59:22.210Z,99891.38
2023-04-23T19:00:31.110Z,100040.31
2023-04-23T19:01:34.961Z,100043.52
2023-04-23T19:02:40.779Z,100038.95
2023-04-23T19:03:44.864Z,100038.59
2023-04-23T19:04:49.241Z,100038.59
2023-04-23T19:05:55.736Z,100032.16
2023-04-23T19:07:00.467Z,100036.56
2023-04-23T19:08:04.394Z,100028.25
2023-04-23T19:09:08.466Z,100028.25
2023-04-23T19:10:16.202Z,100024.05
2023-04-23T19:11:20.233Z,100024.05
2023-04-23T19:12:24.250Z,100029.45
2023-04-23T19:13:32.327Z,100029.45
2023-04-23T19:14:36.589Z,100029.45
2023-04-23T19:15:40.682Z,100035.69
2023-04-23T19:16:44.819Z,100027.78
2023-04-23T19:17:56.766Z,100027.78
2023-04-23T19:19:00.728Z,100032.35
2023-04-23T19:20:04.977Z,100024.41
2023-04-23T19:21:08.826Z,100024.61
2023-04-23T19:22:12.767Z,100024.61
2023-04-23T19:23:16.658Z,100023.94
2023-04-23T19:24:20.624Z,100027.84
2023-04-23T19:25:26.146Z,100023.44
2023-04-23T19:26:30.223Z,100023.44
2023-04-23T19:27:34.893Z,100026.34
2023-04-23T19:28:38.843Z,99927.34
2023-04-23T19:29:43.050Z,100019.43
2023-04-23T19:30:47.225Z,100022.50
2023-04-23T19:31:51.151Z,100018.29
2023-04-23T19:32:55.254Z,100023.02
2023-04-23T19:33:59.253Z,100015.95
2023-04-23T19:35:04.133Z,100015.95
2023-04-23T19:36:09.851Z,100018.14
2023-04-23T19:37:13.722Z,100016.48
2023-04-23T19:40:00.945Z,100020.21
2023-04-23T19:41:06.393Z,100017.20
2023-04-23T19:42:30.875Z,99916.33
2023-04-23T19:43:34.946Z,100019.59
2023-04-23T19:44:41.508Z,100016.22
2023-04-23T19:45:45.454Z,100012.84
2023-04-23T19:46:49.326Z,100018.25
2023-04-23T19:47:54.018Z,100012.02
2023-04-23T19:48:57.921Z,100016.58
2023-04-23T19:50:05.833Z,100014.91
2023-04-23T19:51:11.444Z,100014.91
2023-04-23T19:52:37.223Z,100014.91
2023-04-23T19:53:41.247Z,100017.94
2023-04-23T19:54:48.412Z,100012.06
2023-04-23T19:55:52.329Z,100017.46
2023-04-23T19:57:02.320Z,100017.66
2023-04-23T19:58:08.328Z,100009.72
2023-04-23T19:59:11.941Z,100019.01
2023-04-23T20:00:20.560Z,100009.24
2023-04-23T20:01:29.047Z,100009.59
2023-04-23T20:02:39.693Z,100008.09
2023-04-23T20:04:01.785Z,100008.09
2023-04-23T20:05:06.243Z,100013.66
2023-04-23T20:06:10.305Z,100008.61
2023-04-23T20:07:15.391Z,100016.39
2023-04-23T20:08:19.323Z,100016.39
2023-04-23T20:09:23.271Z,100010.99
2023-04-23T20:10:29.956Z,100010.67
2023-04-23T20:11:37.202Z,100010.67
2023-04-23T20:12:41.062Z,100009.52
2023-04-23T20:13:56.935Z,100009.52
2023-04-23T20:15:00.876Z,100013.77
2023-04-23T20:16:05.266Z,100013.77
2023-04-23T20:17:11.293Z,100017.80
2023-04-23T20:18:16.760Z,100011.25
2023-04-23T20:19:20.611Z,100013.31
2023-04-23T20:20:24.683Z,100013.31
2023-04-23T20:21:28.686Z,100003.87
2023-04-23T20:22:36.834Z,100005.73
2023-04-23T20:23:40.854Z,100005.25
2023-04-23T20:24:46.641Z,100005.25
2023-04-23T20:25:50.694Z,100007.27
2023-04-23T20:26:54.773Z,100007.27
2023-04-23T20:27:58.860Z,99997.63
2023-04-23T20:29:04.783Z,100003.37
2023-04-23T20:30:10.969Z,100001.67
2023-04-23T20:31:17.993Z,99997.47
2023-04-23T20:32:22.544Z,99997.47
2023-04-23T20:33:26.501Z,100003.89
2023-04-23T20:34:30.559Z,100008.80
2023-04-23T20:35:34.542Z,100003.75
2023-04-23T20:36:38.513Z,100003.75
2023-04-23T20:37:42.373Z,100009.65
2023-04-23T20:38:57.625Z,100015.04
2023-04-23T20:39:51.830Z,100009.13
2023-04-23T20:40:55.672Z,100015.55
2023-04-23T20:42:01.208Z,100012.02
2023-04-23T20:43:05.348Z,100012.02
2023-04-23T20:44:10.048Z,100009.47
2023-04-23T20:45:13.977Z,100008.64
2023-04-23T20:46:18.042Z,100010.50
2023-04-23T20:47:24.667Z,100010.50
2023-04-23T20:48:30.806Z,100005.27
2023-04-23T20:49:36.405Z,100005.27
2023-04-23T20:50:43.994Z,100003.75
2023-04-23T20:51:47.608Z,100015.56
2023-04-23T20:52:52.481Z,100012.19
2023-04-23T20:53:58.121Z,100010.52
2023-04-23T20:55:05.488Z,100002.59
2023-04-23T20:56:08.942Z,100002.59
2023-04-23T20:57:12.924Z,100011.85
2023-04-23T20:58:16.978Z,100004.11
2023-04-23T20:59:22.339Z,100004.95
2023-04-23T21:00:27.353Z,100018.77
2023-04-23T21:01:31.406Z,100018.77
2023-04-23T21:02:35.986Z,100012.88
2023-04-23T21:03:40.976Z,100008.52
2023-04-23T21:04:44.933Z,100005.98
2023-04-23T21:05:48.780Z,100005.14
2023-04-23T21:06:52.785Z,100016.27
2023-04-23T21:07:56.701Z,100016.27
2023-04-23T21:09:00.729Z,100003.78
2023-04-23T21:10:05.993Z,100010.35
2023-04-23T21:11:17.738Z,100010.55
2023-04-23T21:12:21.841Z,100010.55
2023-04-23T21:13:25.943Z,100009.86
2023-04-23T21:14:30.274Z,100019.30
2023-04-23T21:15:34.208Z,100019.30
2023-04-23T21:16:38.883Z,100016.77
2023-04-23T21:17:43.147Z,100017.27
2023-04-23T21:18:47.055Z,100018.28
2023-04-23T21:19:51.592Z,100027.39
2023-04-23T21:20:55.559Z,100027.39
2023-04-23T21:22:01.517Z,100023.33
2023-04-23T21:23:05.276Z,100014.23
2023-04-23T21:24:09.207Z,100014.23
2023-04-23T21:25:13.036Z,100022.50
2023-04-23T21:26:17.061Z,100025.19
2023-04-23T21:27:20.974Z,100025.19
2023-04-23T21:28:25.343Z,100023.67
2023-04-23T21:29:31.577Z,100024.66
2023-04-23T21:30:48.006Z,100026.52
2023-04-23T21:31:53.224Z,100026.70
2023-04-23T21:32:57.334Z,100024.16
2023-04-23T21:34:01.411Z,100032.73
2023-04-23T21:35:06.074Z,100028.36
2023-04-23T21:36:11.599Z,100032.42
2023-04-23T21:37:15.435Z,100026.34
2023-04-23T21:38:20.788Z,100024.64
2023-04-23T21:39:24.669Z,100026.50
2023-04-23T21:40:28.652Z,100023.99
2023-04-23T21:41:32.711Z,100020.43
2023-04-23T21:42:36.890Z,100023.31
2023-04-23T21:43:40.825Z,100024.33
2023-04-23T21:44:44.815Z,100022.63
2023-04-23T21:45:48.850Z,100022.63
2023-04-23T21:46:52.866Z,100019.09
2023-04-23T21:47:56.899Z,100016.56
2023-04-23T21:49:00.884Z,100020.27
2023-04-23T21:50:05.133Z,100015.22
2023-04-23T21:51:09.118Z,100015.22
2023-04-23T21:52:13.027Z,100017.23
2023-04-23T21:53:16.876Z,100013.85
2023-04-23T21:54:21.206Z,100016.73
2023-04-23T21:55:27.859Z,100016.73
2023-04-23T21:56:31.947Z,100015.89
2023-04-23T21:57:35.944Z,100011.83
2023-04-23T21:58:39.868Z,100012.02
2023-04-23T21:59:44.103Z,100009.47
2023-04-23T22:00:48.296Z,100018.56
2023-04-23T22:01:52.268Z,100017.70
2023-04-23T22:02:58.052Z,100014.35
2023-04-23T22:04:07.866Z,100014.35
2023-04-23T22:05:09.131Z,100004.42
2023-04-23T22:06:13.641Z,100013.48
2023-04-23T22:07:17.621Z,100011.81
2023-04-23T22:08:21.540Z,100010.47
2023-04-23T22:09:25.558Z,100010.47
2023-04-23T22:10:29.596Z,100009.79
2023-04-23T22:11:33.575Z,100009.94
2023-04-23T22:12:38.488Z,100009.94
2023-04-23T22:13:45.493Z,100010.12
2023-04-23T22:14:49.314Z,100008.27
2023-04-23T22:15:53.333Z,100008.27
2023-04-23T22:16:57.366Z,100004.02
2023-04-23T22:18:01.313Z,100011.41
2023-04-23T22:19:05.245Z,100012.58
2023-04-23T22:20:11.615Z,100007.19
2023-04-23T22:21:15.559Z,100007.19
2023-04-23T22:23:50.915Z,100003.80
2023-04-23T22:24:54.803Z,100003.80
2023-04-23T22:25:58.749Z,100005.97
2023-04-23T22:27:02.599Z,100005.14
2023-04-23T22:28:06.572Z,100002.59
2023-04-23T22:29:10.644Z,100003.62
2023-04-23T22:30:14.836Z,100003.62
2023-04-23T22:31:20.551Z,100000.56
2023-04-23T22:32:24.539Z,100000.56
2023-04-23T22:33:28.435Z,100003.59
2023-04-23T22:34:32.492Z,100003.59
2023-04-23T22:35:36.454Z,100003.41
2023-04-23T22:36:40.386Z,100003.41
2023-04-23T22:37:47.104Z,99999.88
2023-04-23T22:38:50.063Z,100003.59
2023-04-23T22:39:54.091Z,100003.59
2023-04-23T22:40:58.011Z,100002.56
2023-04-23T22:42:01.854Z,100002.56
2023-04-23T22:43:05.739Z,99989.12
2023-04-23T22:44:09.632Z,99993.66
2023-04-23T22:45:13.476Z,99999.23
2023-04-23T22:46:17.484Z,99996.68
2023-04-23T22:47:21.598Z,99996.68
2023-04-23T22:48:25.617Z,99987.78
2023-04-23T22:49:29.597Z,99987.78
2023-04-23T22:50:33.701Z,99995.66
2023-04-23T22:51:37.614Z,99990.29
2023-04-23T22:52:41.623Z,99990.29
2023-04-23T22:53:47.076Z,99991.99
2023-04-23T22:54:52.653Z,99990.14
2023-04-23T22:55:58.310Z,99985.78
2023-04-23T22:57:02.670Z,99984.77
2023-04-23T22:58:07.935Z,99984.77
2023-04-23T22:59:13.601Z,99987.45
2023-04-23T23:00:17.577Z,99991.16
2023-04-23T23:01:21.634Z,99960.83
2023-04-23T23:02:25.635Z,99984.25
2023-04-23T23:03:29.884Z,99987.78
2023-04-23T23:04:34.226Z,99987.78
2023-04-23T23:05:38.261Z,99986.41
2023-04-23T23:06:42.248Z,99990.11
2023-04-23T23:07:46.060Z,99990.11
2023-04-23T23:08:50.068Z,99979.50
2023-04-23T23:09:53.974Z,99971.77
2023-04-23T23:10:57.986Z,99980.84
2023-04-23T23:12:03.518Z,99977.47
2023-04-23T23:13:07.608Z,99983.69
2023-04-23T23:14:11.650Z,99983.69
2023-04-23T23:15:15.655Z,99976.63
2023-04-23T23:16:19.564Z,99972.09
2023-04-23T23:17:23.478Z,99973.11
2023-04-23T23:18:27.436Z,99968.72
2023-04-23T23:19:31.436Z,99973.25
2023-04-23T23:20:35.468Z,99973.25
2023-04-23T23:21:39.509Z,99967.88
2023-04-23T23:22:43.584Z,99973.25
2023-04-23T23:23:47.460Z,99969.87
2023-04-23T23:24:51.437Z,99971.91
2023-04-23T23:25:55.630Z,99968.53
2023-04-23T23:26:59.761Z,99970.53
2023-04-23T23:28:03.593Z,99973.55
2023-04-23T23:29:07.604Z,99973.55
2023-04-23T23:30:11.755Z,99970.64
2023-04-23T23:31:15.804Z,99970.64
2023-04-23T23:32:19.720Z,99968.46
2023-04-23T23:33:23.784Z,99968.46
2023-04-23T23:34:29.705Z,99964.75
2023-04-23T23:35:33.225Z,99967.45
2023-04-23T23:36:38.563Z,99967.45
2023-04-23T23:37:42.542Z,99966.75
2023-04-23T23:38:46.434Z,99967.08
2023-04-23T23:39:50.249Z,99967.08
2023-04-23T23:40:54.182Z,99962.03
2023-04-23T23:41:59.997Z,99963.00
2023-04-23T23:43:03.930Z,99956.25
2023-04-23T23:44:07.720Z,99955.41
2023-04-23T23:45:11.940Z,99956.25
2023-04-23T23:46:16.175Z,99956.25
2023-04-23T23:47:20.299Z,99953.41
2023-04-23T23:48:24.322Z,99956.76
2023-04-23T23:49:28.101Z,99954.94
2023-04-23T23:50:32.786Z,99957.63
2023-04-23T23:51:39.685Z,99958.78
2023-04-23T23:52:43.648Z,99956.42
2023-04-23T23:53:47.443Z,99953.19
2023-04-23T23:54:51.413Z,99957.21
2023-04-23T23:55:55.256Z,99960.22
2023-04-23T23:56:59.204Z,99954.80
2023-04-23T23:58:03.005Z,99962.48
2023-04-23T23:59:06.893Z,99955.41
